Airports and Charts


LSZB - Bern
Flughafeninformationen
Runway Preferential runway system
Identifier Approach Dimension Surface
14 
(138°)
ILS (CAT I) 1730 x 30 m
(5676 x 98 ft)
Asphalt
32 
(318°)
Visual (Circling)

RWY 14 is used for Arrival and Departure up to 5 kts tailwind-component. Otherwise the City-Circling for Runway 32 will be used
 

 

 

 

 


METEO Reports
METAR
LSZB
121050Z VRB01KT CAVOK 26/11 Q1022 NOSIG
LSZB
121120Z VRB03KT CAVOK 26/11 Q1022 NOSIG
TAF
TAF LSZB
120825Z 1209/1218 VRB02KT CAVOK
PROB40 TEMPO 1210/1218 9999 FEW050

Charts
Charts - LSZB
Berne
  FilenameReleased
F Approach APP1 ILS1424.01.2016
F Approach APP2 NDB1424.01.2016
F Approach APP3 CITY CIRCLING24.01.2016
F Approach APP4 ROMEO CIRCLING24.01.2016
F Ground Ground20.08.2015
F Package Fullpack21.09.2016
F VFR VAC21.09.2016

Sceneries
Sceneries - LSZB
Berne
  FilenameReleased
E Freeware Bern-Belp Freeware FSX01.01.2016
E Freeware Bern-Belp X-Plane01.01.2016
E Payware FlyLogic Bern-Belp FSX29.05.2017
E Payware FlyLogic Bern-Belp P3Dv421.08.2018
E Payware FlyLogic Bern-Belp X-Plane 1121.09.2020
E Payware MXI Design Bern-Belp MSFS29.10.2020
E Payware MXI Design Bern-Belp XP1129.10.2020

Stations
KennzeichenNameFrequenz
LSAS_CTR Swiss Radar 128.050 MHz
LSAS_A_CTR Swiss Radar 135.670 MHz
LSAS_B_CTR Swiss Radar 133.900 MHz
LSAS_C_CTR Swiss Radar 135.150 MHz
LSAS_D_CTR Swiss Radar 128.900 MHz
LSAS_F_CTR Swiss Radar 124.020 MHz
LSAS_G_CTR Swiss Radar 134.320 MHz
LSAS_H_CTR Swiss Radar 134.020 MHz
LSAS_J_CTR Swiss Radar 133.620 MHz
LSAS_U_CTR Swiss Radar 133.400 MHz
LSAS_V_CTR Swiss Radar 133.050 MHz
LSAS_I_CTR Swiss Information 124.700 MHz
LSZB_APP Bern Arrival 127.320 MHz
LSZB_TWR Bern Tower 121.020 MHz
LSZB_DEL Bern Delivery 121.900 MHz
LSZB_ATIS Bern ATIS 125.120 MHz


 

online atc

  • no controllers are online

bookings overview

events RSS

news RSS

  • Cross The Land Eastbound Voting

    18.04.2020 07:59:09 z

    Das Voting zur Selektion der Flughäfen für das Event Cross The Land vom 13. ...

  • VA Meeting 2020

    17.03.2020 15:08:00 z

    Die vACC Schweiz präsentiert euch stolz die nächste Ausgabe unseres ...

  • Audio For VATSIM

    13.10.2019 19:04:16 z

    Die VATSIM-Infrastruktur wird in den nächsten 24 Stunden ein umfassendes Update ...